Time;durP1;ratioP1;P1;durP2;ratioP2;P2;SDS_P1;SDS_P2;PMS_P1;PMS_P2;Temp;Humidity;BMP_temperature;BMP_pressure;BME280_temperature;BME280_humidity;BME280_pressure;Samples;Min_cycle;Max_cycle;Signal;HPM_P1;HPM_P2
2022/10/09 00:01:09;;;;;;;8.57;2.80;;;;;;;;;;5032405;28;20486;-74
2022/10/09 00:03:37;;;;;;;9.25;2.85;;;;;;;;;;5032527;28;20024;-74
2022/10/09 00:06:04;;;;;;;9.65;3.20;;;;;;;;;;5032127;28;20032;-73
2022/10/09 00:08:30;;;;;;;9.20;2.78;;;;;;;;;;5032430;28;20030;-73
2022/10/09 00:10:56;;;;;;;12.23;2.90;;;;;;;;;;5032311;28;20048;-73
2022/10/09 00:13:23;;;;;;;10.13;3.42;;;;;;;;;;5031422;28;20049;-73
2022/10/09 00:15:49;;;;;;;9.80;3.58;;;;;;;;;;5032602;28;20027;-74
2022/10/09 00:18:17;;;;;;;10.25;3.50;;;;;;;;;;5032377;28;20022;-73
2022/10/09 00:20:44;;;;;;;12.05;3.28;;;;;;;;;;5032098;28;20033;-73
2022/10/09 00:23:13;;;;;;;9.75;3.03;;;;;;;;;;5032265;28;20033;-73
2022/10/09 00:25:40;;;;;;;8.50;2.80;;;;;;;;;;5032199;28;20397;-74
2022/10/09 00:28:06;;;;;;;13.32;3.13;;;;;;;;;;5031981;28;20037;-74
2022/10/09 00:30:32;;;;;;;15.43;3.53;;;;;;;;;;5047536;28;20014;-74
2022/10/09 00:32:58;;;;;;;9.73;2.90;;;;;;;;;;5032117;28;20034;-74
2022/10/09 00:35:25;;;;;;;8.82;2.90;;;;;;;;;;5032005;28;20031;-73
2022/10/09 00:37:51;;;;;;;7.75;3.03;;;;;;;;;;5031938;28;20421;-73
2022/10/09 00:40:17;;;;;;;9.52;2.83;;;;;;;;;;5047389;28;20026;-73
2022/10/09 00:42:44;;;;;;;7.78;2.75;;;;;;;;;;5031553;28;20045;-73
2022/10/09 00:45:18;;;;;;;9.68;3.03;;;;;;;;;;5031837;28;20022;-73
2022/10/09 00:47:47;;;;;;;10.27;2.90;;;;;;;;;;5031877;28;20099;-74
2022/10/09 00:50:16;;;;;;;8.50;3.15;;;;;;;;;;5031878;28;20040;-73
2022/10/09 00:52:43;;;;;;;9.20;2.92;;;;;;;;;;5031643;28;20021;-73
2022/10/09 00:55:10;;;;;;;11.30;3.58;;;;;;;;;;5032109;28;20044;-73
2022/10/09 00:57:38;;;;;;;11.15;3.17;;;;;;;;;;5031295;28;20029;-73
2022/10/09 01:00:07;;;;;;;8.43;2.75;;;;;;;;;;5031850;28;20032;-73
2022/10/09 01:02:33;;;;;;;8.07;2.70;;;;;;;;;;5031831;28;20051;-73
2022/10/09 01:05:00;;;;;;;8.88;3.15;;;;;;;;;;5031960;28;20029;-73
2022/10/09 01:07:34;;;;;;;5.75;3.03;;;;;;;;;;5031732;28;20025;-74
2022/10/09 01:10:04;;;;;;;5.22;2.97;;;;;;;;;;5031394;28;20386;-73
2022/10/09 01:12:48;;;;;;;11.65;3.28;;;;;;;;;;5031908;28;20024;-73
2022/10/09 01:15:14;;;;;;;7.95;2.90;;;;;;;;;;5032007;28;20047;-74
2022/10/09 01:17:44;;;;;;;7.53;3.30;;;;;;;;;;5031761;28;20409;-73
2022/10/09 01:20:25;;;;;;;9.63;2.60;;;;;;;;;;5031569;28;20495;-74
2022/10/09 01:22:52;;;;;;;13.65;3.38;;;;;;;;;;5031762;28;20060;-73
2022/10/09 01:25:38;;;;;;;9.60;3.22;;;;;;;;;;5031488;28;20026;-73
2022/10/09 01:28:06;;;;;;;10.70;3.30;;;;;;;;;;5013073;28;20502;-74
2022/10/09 01:30:32;;;;;;;9.13;3.30;;;;;;;;;;5013123;28;20042;-73
2022/10/09 01:32:59;;;;;;;8.75;3.25;;;;;;;;;;5013506;28;20042;-73
2022/10/09 01:35:25;;;;;;;10.90;3.22;;;;;;;;;;5012987;28;20430;-73
2022/10/09 01:37:53;;;;;;;11.85;3.92;;;;;;;;;;5013171;28;20040;-73
2022/10/09 01:40:19;;;;;;;9.60;3.05;;;;;;;;;;5011645;28;20044;-73
2022/10/09 01:42:46;;;;;;;11.63;3.33;;;;;;;;;;4993216;28;20054;-73
2022/10/09 01:45:15;;;;;;;8.02;2.88;;;;;;;;;;4977253;28;20141;-74
2022/10/09 01:47:41;;;;;;;10.85;3.53;;;;;;;;;;4993405;28;20042;-72
2022/10/09 01:50:29;;;;;;;16.10;3.50;;;;;;;;;;4993243;28;20502;-73
2022/10/09 01:52:59;;;;;;;11.93;3.40;;;;;;;;;;4993513;28;20046;-73
2022/10/09 01:55:26;;;;;;;11.48;4.03;;;;;;;;;;4992773;28;20033;-73
2022/10/09 01:57:56;;;;;;;7.50;3.22;;;;;;;;;;5011712;28;20045;-73
2022/10/09 02:00:22;;;;;;;8.35;2.80;;;;;;;;;;5013099;28;20032;-73
2022/10/09 02:02:49;;;;;;;9.30;3.55;;;;;;;;;;5012584;28;20048;-73
2022/10/09 02:05:21;;;;;;;10.00;3.90;;;;;;;;;;5024266;28;20039;-73
2022/10/09 02:07:48;;;;;;;6.45;2.70;;;;;;;;;;5034063;28;20029;-73
2022/10/09 02:10:16;;;;;;;9.65;3.15;;;;;;;;;;5034397;28;20022;-73
2022/10/09 02:12:45;;;;;;;10.88;3.28;;;;;;;;;;5034171;28;20045;-73
2022/10/09 02:15:12;;;;;;;8.98;3.58;;;;;;;;;;5034075;28;20030;-73
2022/10/09 02:17:42;;;;;;;17.33;4.22;;;;;;;;;;5034304;28;20100;-72
2022/10/09 02:20:13;;;;;;;9.15;2.90;;;;;;;;;;5034138;28;20104;-74
2022/10/09 02:22:40;;;;;;;8.88;3.15;;;;;;;;;;5033713;28;20044;-73
2022/10/09 02:25:07;;;;;;;6.20;2.83;;;;;;;;;;5034064;28;20025;-73
2022/10/09 02:27:33;;;;;;;9.25;3.50;;;;;;;;;;5034162;28;20036;-73
2022/10/09 02:30:00;;;;;;;10.13;3.78;;;;;;;;;;5033976;28;20021;-74
2022/10/09 02:32:27;;;;;;;12.60;3.28;;;;;;;;;;5033922;28;20036;-73
2022/10/09 02:34:53;;;;;;;10.75;3.97;;;;;;;;;;5049098;28;20025;-73
2022/10/09 02:37:20;;;;;;;11.43;3.35;;;;;;;;;;5033079;28;20028;-74
2022/10/09 02:39:46;;;;;;;5.90;3.05;;;;;;;;;;5032671;28;20436;-73
2022/10/09 02:42:13;;;;;;;8.18;3.10;;;;;;;;;;5033616;28;20034;-73
2022/10/09 02:44:39;;;;;;;7.20;2.80;;;;;;;;;;5033631;28;20026;-73
2022/10/09 02:47:05;;;;;;;11.57;3.17;;;;;;;;;;5033979;28;20030;-73
2022/10/09 02:49:32;;;;;;;8.90;3.13;;;;;;;;;;5033874;28;20026;-73
2022/10/09 02:51:58;;;;;;;9.23;3.28;;;;;;;;;;5033106;28;20025;-73
2022/10/09 02:54:24;;;;;;;9.75;3.42;;;;;;;;;;5033578;28;20021;-73
2022/10/09 02:56:51;;;;;;;12.32;3.30;;;;;;;;;;5033583;28;20044;-73
2022/10/09 02:59:17;;;;;;;10.43;3.13;;;;;;;;;;5049000;28;20070;-73
2022/10/09 03:01:43;;;;;;;7.18;2.92;;;;;;;;;;5033528;28;20033;-73
2022/10/09 03:04:10;;;;;;;12.60;3.75;;;;;;;;;;5033428;28;20026;-73
2022/10/09 03:06:36;;;;;;;12.43;3.40;;;;;;;;;;5032976;28;20021;-74
2022/10/09 03:09:02;;;;;;;8.80;3.25;;;;;;;;;;5033345;28;20494;-73
2022/10/09 03:11:28;;;;;;;10.18;3.47;;;;;;;;;;5033683;28;20040;-73
2022/10/09 03:13:55;;;;;;;11.88;3.83;;;;;;;;;;5032960;28;20527;-73
2022/10/09 03:16:22;;;;;;;11.68;3.40;;;;;;;;;;5033331;28;20058;-73
2022/10/09 03:18:49;;;;;;;12.50;3.22;;;;;;;;;;5033317;28;20030;-73
2022/10/09 03:21:23;;;;;;;10.70;3.22;;;;;;;;;;5032781;28;20083;-73
2022/10/09 03:23:49;;;;;;;5.07;3.03;;;;;;;;;;5032989;28;20020;-73
2022/10/09 03:26:18;;;;;;;10.35;2.97;;;;;;;;;;5033266;28;20474;-72
2022/10/09 03:28:46;;;;;;;10.93;3.25;;;;;;;;;;5033044;28;20040;-74
2022/10/09 03:31:13;;;;;;;6.97;3.70;;;;;;;;;;5033022;28;20017;-73
2022/10/09 03:33:39;;;;;;;13.13;3.80;;;;;;;;;;5032939;28;20021;-73
2022/10/09 03:36:06;;;;;;;11.18;3.58;;;;;;;;;;5032395;28;20022;-73
2022/10/09 03:38:33;;;;;;;14.73;3.90;;;;;;;;;;5032815;28;20036;-73
2022/10/09 03:41:00;;;;;;;9.80;3.47;;;;;;;;;;5032677;28;20040;-73
2022/10/09 03:43:27;;;;;;;8.93;3.08;;;;;;;;;;5032652;28;20512;-73
2022/10/09 03:45:54;;;;;;;10.00;3.30;;;;;;;;;;5032584;28;20033;-73
2022/10/09 03:48:20;;;;;;;14.07;3.50;;;;;;;;;;5031878;28;20033;-73
2022/10/09 03:50:47;;;;;;;7.80;2.95;;;;;;;;;;5032111;28;20056;-74
2022/10/09 03:53:14;;;;;;;6.88;3.55;;;;;;;;;;5032651;28;20018;-74
2022/10/09 03:55:40;;;;;;;7.97;3.40;;;;;;;;;;5032661;28;20025;-72
2022/10/09 03:58:08;;;;;;;14.63;3.85;;;;;;;;;;5032455;28;20025;-73
2022/10/09 04:00:35;;;;;;;11.70;3.30;;;;;;;;;;5032271;28;20028;-73
2022/10/09 04:03:01;;;;;;;11.65;3.20;;;;;;;;;;5047879;28;20102;-73
2022/10/09 04:05:29;;;;;;;13.73;3.38;;;;;;;;;;5031849;28;20035;-73
2022/10/09 04:07:56;;;;;;;14.68;2.90;;;;;;;;;;5032526;28;20026;-73
2022/10/09 04:10:22;;;;;;;8.80;3.45;;;;;;;;;;5032303;28;20026;-73
2022/10/09 04:12:48;;;;;;;10.32;3.22;;;;;;;;;;5032286;28;20052;-73
2022/10/09 04:15:15;;;;;;;12.38;3.38;;;;;;;;;;5032192;28;20039;-73
2022/10/09 04:17:41;;;;;;;7.35;3.15;;;;;;;;;;5032142;28;20025;-73
2022/10/09 04:20:08;;;;;;;8.93;3.55;;;;;;;;;;5031875;28;20041;-74
2022/10/09 04:22:34;;;;;;;10.40;3.75;;;;;;;;;;5032169;28;20033;-73
2022/10/09 04:25:00;;;;;;;11.05;3.85;;;;;;;;;;5032150;28;20022;-73
2022/10/09 04:27:27;;;;;;;14.27;3.80;;;;;;;;;;5032135;28;20376;-73
2022/10/09 04:29:53;;;;;;;12.55;3.60;;;;;;;;;;5031999;28;20029;-73
2022/10/09 04:32:19;;;;;;;14.30;4.60;;;;;;;;;;5031905;28;20028;-73
2022/10/09 04:34:45;;;;;;;9.52;3.80;;;;;;;;;;5031514;28;20025;-73
2022/10/09 04:37:12;;;;;;;9.30;3.50;;;;;;;;;;5031939;28;20518;-73
2022/10/09 04:39:38;;;;;;;11.68;3.50;;;;;;;;;;5032220;28;20017;-73
2022/10/09 04:42:05;;;;;;;13.13;3.30;;;;;;;;;;5031671;28;20038;-72
2022/10/09 04:44:32;;;;;;;10.43;3.67;;;;;;;;;;5031648;28;20413;-73
2022/10/09 04:46:58;;;;;;;9.27;3.00;;;;;;;;;;5030746;28;20033;-74
2022/10/09 04:49:24;;;;;;;6.57;3.15;;;;;;;;;;5031762;28;20033;-73
2022/10/09 04:51:50;;;;;;;9.75;3.30;;;;;;;;;;5031874;28;20036;-73
2022/10/09 04:54:17;;;;;;;9.20;3.70;;;;;;;;;;5031695;28;20051;-73
2022/10/09 04:56:43;;;;;;;12.90;3.80;;;;;;;;;;5031632;28;20475;-73
2022/10/09 04:59:10;;;;;;;15.80;4.10;;;;;;;;;;5031988;28;20028;-73
2022/10/09 05:01:36;;;;;;;18.25;3.85;;;;;;;;;;5035476;28;20033;-73
2022/10/09 05:04:02;;;;;;;14.27;3.75;;;;;;;;;;5035233;28;20381;-73
2022/10/09 05:06:28;;;;;;;21.17;4.07;;;;;;;;;;5035613;28;20024;-73
2022/10/09 05:08:55;;;;;;;6.80;3.05;;;;;;;;;;5035718;28;20029;-73
2022/10/09 05:11:23;;;;;;;7.32;3.17;;;;;;;;;;5035626;28;20022;-73
2022/10/09 05:13:53;;;;;;;8.55;3.45;;;;;;;;;;5035304;28;20057;-73
2022/10/09 05:16:21;;;;;;;7.50;3.20;;;;;;;;;;5035225;28;20025;-73
2022/10/09 05:18:49;;;;;;;15.43;2.90;;;;;;;;;;5035692;28;20352;-73
2022/10/09 05:21:15;;;;;;;13.98;3.50;;;;;;;;;;5035539;28;20029;-73
2022/10/09 05:23:42;;;;;;;13.02;3.83;;;;;;;;;;5035244;28;20375;-73
2022/10/09 05:26:11;;;;;;;7.55;3.17;;;;;;;;;;5035148;28;20024;-73
2022/10/09 05:28:38;;;;;;;11.98;3.60;;;;;;;;;;5035170;28;20029;-73
2022/10/09 05:31:05;;;;;;;7.80;3.28;;;;;;;;;;5034807;28;20033;-72
2022/10/09 05:33:31;;;;;;;8.93;3.35;;;;;;;;;;5035360;28;20036;-73
2022/10/09 05:36:01;;;;;;;10.30;3.83;;;;;;;;;;5034990;28;20025;-73
2022/10/09 05:38:28;;;;;;;7.95;3.13;;;;;;;;;;5035253;28;20028;-73
2022/10/09 05:40:54;;;;;;;11.77;3.65;;;;;;;;;;5034800;28;20471;-72
2022/10/09 05:43:23;;;;;;;10.55;3.40;;;;;;;;;;5035283;28;20025;-72
2022/10/09 05:45:49;;;;;;;7.05;3.28;;;;;;;;;;5034548;28;20028;-73
2022/10/09 05:48:15;;;;;;;6.05;3.10;;;;;;;;;;5034899;28;20039;-73
2022/10/09 05:50:42;;;;;;;10.25;3.40;;;;;;;;;;5034683;28;20029;-73
2022/10/09 05:53:08;;;;;;;9.93;3.65;;;;;;;;;;5034948;28;20032;-73
2022/10/09 05:55:34;;;;;;;7.60;3.20;;;;;;;;;;5034651;28;20022;-73
2022/10/09 05:58:01;;;;;;;12.52;3.60;;;;;;;;;;5030168;28;20032;-73
2022/10/09 06:00:27;;;;;;;12.98;4.10;;;;;;;;;;5014635;28;20040;-73
2022/10/09 06:02:53;;;;;;;9.27;3.38;;;;;;;;;;5014672;28;20101;-73
2022/10/09 06:05:20;;;;;;;10.57;3.38;;;;;;;;;;5014859;28;20390;-73
2022/10/09 06:07:47;;;;;;;8.85;3.63;;;;;;;;;;5014938;28;20018;-73
2022/10/09 06:10:13;;;;;;;8.15;3.22;;;;;;;;;;5014614;28;20101;-73
2022/10/09 06:12:40;;;;;;;10.07;3.70;;;;;;;;;;5013600;28;20383;-73
2022/10/09 06:15:06;;;;;;;10.77;3.63;;;;;;;;;;5024049;28;20025;-73
2022/10/09 06:17:33;;;;;;;7.45;3.20;;;;;;;;;;5033331;28;20018;-73
2022/10/09 06:19:59;;;;;;;12.60;3.55;;;;;;;;;;5034455;28;20029;-73
2022/10/09 06:22:25;;;;;;;11.77;3.13;;;;;;;;;;5033959;28;20490;-73
2022/10/09 06:24:52;;;;;;;13.07;3.55;;;;;;;;;;5033146;28;20083;-73
2022/10/09 06:27:18;;;;;;;13.60;3.55;;;;;;;;;;5034093;28;20026;-73
2022/10/09 06:29:44;;;;;;;8.15;3.03;;;;;;;;;;5033863;28;20051;-73
2022/10/09 06:32:10;;;;;;;7.10;2.85;;;;;;;;;;5034073;28;20029;-73
2022/10/09 06:34:37;;;;;;;13.27;3.05;;;;;;;;;;5033802;28;20021;-73
2022/10/09 06:37:03;;;;;;;9.02;2.90;;;;;;;;;;5034027;28;20040;-73
2022/10/09 06:39:29;;;;;;;12.93;3.40;;;;;;;;;;5034153;28;20024;-73
2022/10/09 06:41:56;;;;;;;10.57;3.25;;;;;;;;;;5033611;28;20048;-73
2022/10/09 06:44:22;;;;;;;15.82;3.92;;;;;;;;;;5033538;28;20401;-73
2022/10/09 06:46:49;;;;;;;18.17;3.65;;;;;;;;;;5033660;28;20033;-73
2022/10/09 06:49:15;;;;;;;7.90;3.42;;;;;;;;;;5034020;28;20031;-73
2022/10/09 06:51:41;;;;;;;16.40;3.75;;;;;;;;;;5033729;28;20025;-73
2022/10/09 06:54:12;;;;;;;15.68;3.40;;;;;;;;;;5033583;28;20028;-73
2022/10/09 06:56:38;;;;;;;9.95;3.03;;;;;;;;;;5033349;28;20032;-73
2022/10/09 06:59:06;;;;;;;10.88;2.88;;;;;;;;;;5033362;28;20025;-73
2022/10/09 07:01:32;;;;;;;13.23;3.20;;;;;;;;;;5033594;28;20037;-73
2022/10/09 07:04:05;;;;;;;11.52;3.25;;;;;;;;;;5033207;28;20028;-73
2022/10/09 07:06:32;;;;;;;9.95;3.63;;;;;;;;;;5033216;28;20022;-73
2022/10/09 07:08:59;;;;;;;9.45;3.40;;;;;;;;;;5033471;28;20036;-73
2022/10/09 07:11:27;;;;;;;9.65;2.60;;;;;;;;;;5048769;28;20025;-73
2022/10/09 07:13:55;;;;;;;16.15;3.50;;;;;;;;;;5032724;28;20414;-73
2022/10/09 07:16:22;;;;;;;13.38;2.85;;;;;;;;;;5048677;28;20540;-73
2022/10/09 07:18:49;;;;;;;15.05;2.88;;;;;;;;;;5033425;28;20029;-73
2022/10/09 07:21:15;;;;;;;14.65;3.47;;;;;;;;;;5032891;28;20043;-74
2022/10/09 07:23:42;;;;;;;12.20;3.00;;;;;;;;;;5033277;28;20043;-73
2022/10/09 07:26:28;;;;;;;24.13;3.20;;;;;;;;;;5032950;28;20060;-74
2022/10/09 07:28:54;;;;;;;10.30;2.67;;;;;;;;;;5032543;28;20405;-73
2022/10/09 07:31:21;;;;;;;10.18;3.03;;;;;;;;;;5033109;28;20029;-73
2022/10/09 07:33:49;;;;;;;14.50;2.72;;;;;;;;;;5032884;28;20021;-73
2022/10/09 07:36:15;;;;;;;9.50;2.70;;;;;;;;;;5032929;28;20027;-73
2022/10/09 07:38:42;;;;;;;9.32;2.60;;;;;;;;;;5033238;28;20033;-73
2022/10/09 07:41:09;;;;;;;11.13;3.20;;;;;;;;;;5032468;28;20023;-74
2022/10/09 07:43:39;;;;;;;20.50;3.10;;;;;;;;;;5032267;28;20516;-73
2022/10/09 07:46:06;;;;;;;22.27;3.15;;;;;;;;;;5031346;28;20025;-74
2022/10/09 07:48:34;;;;;;;7.60;2.28;;;;;;;;;;5032762;28;20026;-73
2022/10/09 07:51:07;;;;;;;10.32;2.60;;;;;;;;;;5033016;28;20030;-74
2022/10/09 07:53:33;;;;;;;11.07;2.63;;;;;;;;;;5032518;28;20034;-73
2022/10/09 07:55:59;;;;;;;12.40;2.70;;;;;;;;;;5031894;28;20025;-73
2022/10/09 07:58:26;;;;;;;9.30;2.95;;;;;;;;;;5032971;28;20021;-74
2022/10/09 08:00:52;;;;;;;11.20;2.80;;;;;;;;;;5032685;28;20034;-74
2022/10/09 08:03:18;;;;;;;7.25;2.45;;;;;;;;;;5047744;28;20394;-74
2022/10/09 08:05:52;;;;;;;8.57;2.40;;;;;;;;;;5032691;28;20040;-73
2022/10/09 08:08:19;;;;;;;11.88;2.45;;;;;;;;;;5032522;28;20025;-74
2022/10/09 08:10:45;;;;;;;6.35;2.60;;;;;;;;;;5031988;28;20099;-74
2022/10/09 08:13:11;;;;;;;7.80;2.13;;;;;;;;;;5047635;28;20051;-74
2022/10/09 08:15:41;;;;;;;7.30;2.58;;;;;;;;;;5032331;28;20368;-73
2022/10/09 08:18:08;;;;;;;8.02;2.53;;;;;;;;;;5032076;28;20082;-74
2022/10/09 08:20:36;;;;;;;10.48;2.45;;;;;;;;;;5032064;28;20065;-74
2022/10/09 08:23:02;;;;;;;8.82;2.25;;;;;;;;;;5032035;28;20030;-74
2022/10/09 08:25:29;;;;;;;7.53;2.45;;;;;;;;;;5031685;28;20068;-74
2022/10/09 08:27:55;;;;;;;9.73;2.95;;;;;;;;;;5032273;28;20033;-74
2022/10/09 08:30:21;;;;;;;8.13;2.35;;;;;;;;;;5032313;28;20075;-74
2022/10/09 08:32:48;;;;;;;7.65;2.35;;;;;;;;;;5032138;28;20498;-74
2022/10/09 08:35:14;;;;;;;8.82;2.35;;;;;;;;;;5035115;28;20029;-74
2022/10/09 08:37:40;;;;;;;7.85;2.47;;;;;;;;;;5038641;28;20382;-74
2022/10/09 08:40:07;;;;;;;6.32;2.10;;;;;;;;;;5038113;28;20029;-74
2022/10/09 08:42:33;;;;;;;6.60;2.60;;;;;;;;;;5038338;28;20519;-74
2022/10/09 08:44:59;;;;;;;6.18;2.40;;;;;;;;;;5038501;28;20397;-74
2022/10/09 08:47:37;;;;;;;8.07;2.47;;;;;;;;;;5038381;28;20029;-74
2022/10/09 08:50:12;;;;;;;7.45;2.40;;;;;;;;;;5038536;28;20059;-75
2022/10/09 08:52:47;;;;;;;9.57;2.40;;;;;;;;;;5038644;28;20039;-74
2022/10/09 08:55:17;;;;;;;9.93;2.30;;;;;;;;;;5037868;28;20025;-74
2022/10/09 08:57:44;;;;;;;6.83;2.50;;;;;;;;;;5038369;28;20025;-74
2022/10/09 09:00:18;;;;;;;6.03;2.33;;;;;;;;;;5038564;28;20325;-74
2022/10/09 09:02:54;;;;;;;6.85;2.30;;;;;;;;;;5038281;28;20048;-74
2022/10/09 09:05:23;;;;;;;8.02;2.40;;;;;;;;;;5038106;28;20147;-73
2022/10/09 09:07:55;;;;;;;10.15;2.40;;;;;;;;;;5038323;28;20409;-74
2022/10/09 09:10:34;;;;;;;10.88;2.58;;;;;;;;;;5037917;28;20025;-74
2022/10/09 09:13:29;;;;;;;11.98;2.45;;;;;;;;;;5038303;28;20049;-74
2022/10/09 09:16:11;;;;;;;8.60;2.30;;;;;;;;;;5038234;28;20063;-74
2022/10/09 09:18:46;;;;;;;5.88;2.42;;;;;;;;;;5038371;28;20021;-74
2022/10/09 09:21:16;;;;;;;10.23;2.47;;;;;;;;;;5038106;28;20483;-74
2022/10/09 09:23:47;;;;;;;8.23;2.33;;;;;;;;;;5037973;28;20037;-73
2022/10/09 09:26:16;;;;;;;9.30;2.47;;;;;;;;;;5038478;28;20067;-73
2022/10/09 09:28:43;;;;;;;6.28;2.38;;;;;;;;;;5038448;28;20037;-73
2022/10/09 09:31:12;;;;;;;8.88;2.33;;;;;;;;;;5037992;28;20021;-74
2022/10/09 09:33:43;;;;;;;10.90;2.42;;;;;;;;;;5038029;28;20032;-74
2022/10/09 09:36:36;;;;;;;9.88;2.40;;;;;;;;;;5038025;28;20025;-73
2022/10/09 09:39:02;;;;;;;9.88;2.88;;;;;;;;;;5016048;28;20088;-74
2022/10/09 09:41:29;;;;;;;7.25;2.33;;;;;;;;;;5005638;28;20051;-74
2022/10/09 09:43:55;;;;;;;8.15;2.55;;;;;;;;;;4996289;28;20572;-74
2022/10/09 09:46:23;;;;;;;11.57;3.00;;;;;;;;;;4994351;28;20042;-74
2022/10/09 09:48:49;;;;;;;6.63;2.58;;;;;;;;;;4993205;28;20040;-74
2022/10/09 09:51:17;;;;;;;10.98;2.55;;;;;;;;;;4993262;28;20390;-74
2022/10/09 09:53:48;;;;;;;11.85;2.42;;;;;;;;;;4993118;28;20028;-74
2022/10/09 09:56:15;;;;;;;8.10;2.40;;;;;;;;;;4998615;28;20033;-74
2022/10/09 09:58:46;;;;;;;6.95;2.28;;;;;;;;;;5012643;28;20499;-73
2022/10/09 10:01:39;;;;;;;8.65;2.20;;;;;;;;;;5013019;28;20030;-74
2022/10/09 10:04:18;;;;;;;9.27;2.25;;;;;;;;;;5010078;28;20041;-74
2022/10/09 10:06:44;;;;;;;13.73;2.30;;;;;;;;;;5012501;28;20095;-74
2022/10/09 10:09:15;;;;;;;7.72;2.58;;;;;;;;;;5012843;28;20410;-74
2022/10/09 10:11:47;;;;;;;6.75;2.30;;;;;;;;;;5012560;28;20169;-74
2022/10/09 10:14:14;;;;;;;9.98;2.47;;;;;;;;;;5012372;28;20045;-74
2022/10/09 10:16:41;;;;;;;9.00;2.65;;;;;;;;;;5031185;28;20037;-74
2022/10/09 10:19:19;;;;;;;10.15;2.28;;;;;;;;;;5034586;28;20030;-74
2022/10/09 10:21:56;;;;;;;11.88;2.65;;;;;;;;;;5033884;28;20040;-74
2022/10/09 10:24:26;;;;;;;11.75;2.60;;;;;;;;;;5034197;28;20032;-74
2022/10/09 10:26:54;;;;;;;13.27;2.75;;;;;;;;;;5034300;28;20025;-74
2022/10/09 10:29:30;;;;;;;11.27;2.60;;;;;;;;;;5034252;28;20025;-74
2022/10/09 10:32:05;;;;;;;9.38;3.10;;;;;;;;;;5033979;28;20018;-74
2022/10/09 10:34:44;;;;;;;8.68;2.72;;;;;;;;;;5034151;28;20040;-74
2022/10/09 10:37:13;;;;;;;8.10;2.45;;;;;;;;;;5033735;28;20087;-74
2022/10/09 10:39:42;;;;;;;10.35;2.65;;;;;;;;;;5034316;28;20034;-75
2022/10/09 10:42:16;;;;;;;10.07;2.70;;;;;;;;;;5049094;28;20053;-75
2022/10/09 10:44:46;;;;;;;12.38;2.88;;;;;;;;;;5032533;28;20075;-75
2022/10/09 10:47:13;;;;;;;;;;;;;;;;;;5034188;28;20026;-75
2022/10/09 10:49:39;;;;;;;17.33;2.67;;;;;;;;;;5033779;28;19911;-75
2022/10/09 10:52:18;;;;;;;11.13;2.67;;;;;;;;;;5033360;28;20025;-75
2022/10/09 10:54:58;;;;;;;9.30;2.80;;;;;;;;;;5049168;28;20025;-75
2022/10/09 10:57:43;;;;;;;10.05;2.60;;;;;;;;;;5033243;28;20029;-75
2022/10/09 11:00:10;;;;;;;16.98;3.50;;;;;;;;;;5033801;28;20036;-74
2022/10/09 11:02:48;;;;;;;10.98;2.50;;;;;;;;;;5033453;28;20044;-74
2022/10/09 11:05:26;;;;;;;10.35;2.60;;;;;;;;;;5033029;28;20022;-75
2022/10/09 11:08:05;;;;;;;10.85;2.95;;;;;;;;;;5033199;28;20032;-75
2022/10/09 11:10:31;;;;;;;10.07;2.17;;;;;;;;;;5033239;28;20521;-74
2022/10/09 11:13:08;;;;;;;9.85;1.92;;;;;;;;;;5033118;28;20037;-75
2022/10/09 11:15:47;;;;;;;7.63;2.38;;;;;;;;;;5033545;28;20029;-75
2022/10/09 11:18:32;;;;;;;11.40;2.33;;;;;;;;;;5033324;28;20034;-75
2022/10/09 11:21:16;;;;;;;8.30;2.10;;;;;;;;;;5032831;28;20421;-75
2022/10/09 11:24:01;;;;;;;6.40;2.30;;;;;;;;;;5033427;28;20035;-74
2022/10/09 11:26:32;;;;;;;12.35;2.50;;;;;;;;;;5033167;28;20024;-74
2022/10/09 11:29:09;;;;;;;8.63;2.25;;;;;;;;;;5032973;28;20508;-75
2022/10/09 11:31:39;;;;;;;11.10;1.95;;;;;;;;;;5032857;28;20045;-75
2022/10/09 11:34:09;;;;;;;7.38;1.60;;;;;;;;;;5032518;28;20033;-75
2022/10/09 11:36:43;;;;;;;4.45;1.40;;;;;;;;;;5033046;28;20034;-75
2022/10/09 11:39:14;;;;;;;3.90;1.27;;;;;;;;;;5032890;28;20034;-75
2022/10/09 11:41:44;;;;;;;7.57;1.80;;;;;;;;;;5032570;28;20359;-75
2022/10/09 11:44:22;;;;;;;4.35;1.60;;;;;;;;;;5031477;28;20413;-75
2022/10/09 11:46:54;;;;;;;3.70;1.65;;;;;;;;;;5032959;28;20021;-75
2022/10/09 11:49:20;;;;;;;4.50;1.58;;;;;;;;;;5047728;28;20079;-75
2022/10/09 11:52:01;;;;;;;5.30;1.52;;;;;;;;;;5032958;28;20013;-75
2022/10/09 11:54:28;;;;;;;4.30;1.52;;;;;;;;;;5032779;28;20078;-75
2022/10/09 11:56:58;;;;;;;6.80;1.67;;;;;;;;;;5032698;28;20025;-75
2022/10/09 11:59:29;;;;;;;5.88;1.75;;;;;;;;;;5032298;28;20029;-75
2022/10/09 12:01:55;;;;;;;;;;;;;;;;;;5032781;28;20036;-75
2022/10/09 12:04:27;;;;;;;3.53;1.48;;;;;;;;;;5032007;28;20267;-75
2022/10/09 12:06:55;;;;;;;4.90;1.50;;;;;;;;;;5032612;28;20087;-75
2022/10/09 12:09:37;;;;;;;6.32;1.52;;;;;;;;;;5031819;28;20025;-76
2022/10/09 12:12:06;;;;;;;5.25;1.50;;;;;;;;;;5032168;28;20022;-75
2022/10/09 12:14:33;;;;;;;6.72;1.67;;;;;;;;;;5032102;28;20036;-75
2022/10/09 12:17:00;;;;;;;5.28;1.45;;;;;;;;;;5032179;28;20029;-75
2022/10/09 12:19:30;;;;;;;6.80;1.77;;;;;;;;;;5032606;28;20031;-75
2022/10/09 12:21:57;;;;;;;3.90;1.50;;;;;;;;;;5032103;28;20030;-75
2022/10/09 12:24:25;;;;;;;7.60;1.50;;;;;;;;;;5032326;28;20025;-76
2022/10/09 12:26:53;;;;;;;6.45;1.85;;;;;;;;;;5047683;28;20037;-75
2022/10/09 12:29:28;;;;;;;9.18;1.80;;;;;;;;;;5032045;28;20055;-75
2022/10/09 12:31:57;;;;;;;7.38;2.00;;;;;;;;;;5031795;28;20059;-76
2022/10/09 12:34:26;;;;;;;5.30;1.63;;;;;;;;;;5032105;28;20032;-76
2022/10/09 12:37:02;;;;;;;5.57;1.73;;;;;;;;;;5032279;28;20034;-76
2022/10/09 12:39:32;;;;;;;5.53;1.55;;;;;;;;;;5032022;28;20505;-76
2022/10/09 12:41:58;;;;;;;;;;;;;;;;;;5032192;28;20493;-75
2022/10/09 12:44:25;;;;;;;4.45;1.50;;;;;;;;;;5032147;28;19917;-75
2022/10/09 12:46:51;;;;;;;4.57;1.67;;;;;;;;;;5031520;28;20025;-74
2022/10/09 12:49:24;;;;;;;4.93;1.40;;;;;;;;;;5031878;28;20029;-76
2022/10/09 12:51:54;;;;;;;6.50;1.77;;;;;;;;;;5032095;28;20184;-75
2022/10/09 12:54:20;;;;;;;;;;;;;;;;;;5032274;28;20508;-75
2022/10/09 12:56:47;;;;;;;4.15;1.35;;;;;;;;;;5031686;28;19911;-75
2022/10/09 12:59:14;;;;;;;5.68;1.40;;;;;;;;;;5031622;28;20036;-76
2022/10/09 13:01:41;;;;;;;3.92;1.45;;;;;;;;;;5031388;28;20030;-75
2022/10/09 13:04:23;;;;;;;11.38;1.83;;;;;;;;;;5031624;28;20036;-75
2022/10/09 13:06:50;;;;;;;11.18;2.20;;;;;;;;;;5031597;28;20044;-73
2022/10/09 13:09:21;;;;;;;3.72;1.50;;;;;;;;;;5031869;28;20037;-76
2022/10/09 13:11:57;;;;;;;3.55;1.55;;;;;;;;;;5047134;28;20025;-76
2022/10/09 13:14:32;;;;;;;4.50;1.45;;;;;;;;;;5031690;28;20052;-75
2022/10/09 13:16:59;;;;;;;6.13;1.65;;;;;;;;;;5031451;28;20029;-75
2022/10/09 13:19:27;;;;;;;6.15;1.90;;;;;;;;;;5031849;28;20029;-75
2022/10/09 13:22:04;;;;;;;5.35;1.50;;;;;;;;;;5033938;28;20494;-75
2022/10/09 13:24:31;;;;;;;4.50;1.90;;;;;;;;;;5035393;28;20022;-75
2022/10/09 13:26:57;;;;;;;4.70;1.80;;;;;;;;;;5035259;28;20033;-76
2022/10/09 13:29:24;;;;;;;6.32;1.95;;;;;;;;;;5034993;28;20021;-74
2022/10/09 13:31:50;;;;;;;5.28;1.63;;;;;;;;;;5035205;28;20486;-75
2022/10/09 13:34:17;;;;;;;5.68;1.67;;;;;;;;;;5035469;28;20027;-75
2022/10/09 13:36:44;;;;;;;2.45;1.40;;;;;;;;;;5035496;28;20017;-75
2022/10/09 13:39:13;;;;;;;4.32;1.70;;;;;;;;;;5035059;28;20029;-75
2022/10/09 13:41:39;;;;;;;4.30;1.90;;;;;;;;;;5050410;28;20029;-75
2022/10/09 13:44:06;;;;;;;6.22;1.90;;;;;;;;;;5034711;28;20036;-75
2022/10/09 13:46:32;;;;;;;3.92;1.77;;;;;;;;;;5035291;28;20017;-76
2022/10/09 13:48:58;;;;;;;5.40;1.83;;;;;;;;;;5035169;28;20025;-76
2022/10/09 13:51:25;;;;;;;3.40;1.40;;;;;;;;;;5034959;28;20047;-75
2022/10/09 13:53:52;;;;;;;3.72;1.90;;;;;;;;;;5034818;28;20037;-76
2022/10/09 13:56:18;;;;;;;5.68;1.90;;;;;;;;;;5034842;28;20025;-75
2022/10/09 13:58:45;;;;;;;3.33;1.67;;;;;;;;;;5034321;28;20491;-75
2022/10/09 14:01:11;;;;;;;7.18;2.15;;;;;;;;;;5034776;28;20021;-75
2022/10/09 14:03:37;;;;;;;5.65;1.63;;;;;;;;;;5034597;28;20037;-75
2022/10/09 14:06:04;;;;;;;7.68;1.92;;;;;;;;;;5034739;28;20025;-74
2022/10/09 14:08:30;;;;;;;4.07;1.80;;;;;;;;;;5034672;28;20025;-75
2022/10/09 14:10:59;;;;;;;3.20;1.88;;;;;;;;;;5033638;28;20018;-75
2022/10/09 14:13:26;;;;;;;6.18;2.30;;;;;;;;;;5049200;28;20085;-74
2022/10/09 14:15:52;;;;;;;6.97;1.90;;;;;;;;;;5034452;28;20026;-75
2022/10/09 14:18:19;;;;;;;4.78;1.73;;;;;;;;;;5034489;28;20131;-75
2022/10/09 14:20:45;;;;;;;9.02;1.92;;;;;;;;;;5034609;28;20018;-75
2022/10/09 14:23:12;;;;;;;4.70;1.80;;;;;;;;;;5034338;28;20409;-74
2022/10/09 14:25:39;;;;;;;3.30;1.50;;;;;;;;;;5049924;28;20025;-74
2022/10/09 14:28:06;;;;;;;5.20;1.90;;;;;;;;;;5033808;28;20037;-75
2022/10/09 14:30:33;;;;;;;6.88;2.28;;;;;;;;;;5034368;28;20059;-74
2022/10/09 14:32:59;;;;;;;4.28;1.85;;;;;;;;;;5032086;28;20390;-75
2022/10/09 14:35:25;;;;;;;6.63;2.00;;;;;;;;;;5033944;28;20026;-75
2022/10/09 14:37:51;;;;;;;6.93;2.05;;;;;;;;;;5049335;28;20025;-74
2022/10/09 14:40:18;;;;;;;8.98;2.13;;;;;;;;;;5033780;28;20378;-74
2022/10/09 14:42:44;;;;;;;4.88;2.00;;;;;;;;;;5033444;28;20056;-75
2022/10/09 14:45:10;;;;;;;6.93;2.20;;;;;;;;;;5034152;28;20075;-75
2022/10/09 14:47:37;;;;;;;4.03;2.13;;;;;;;;;;5034009;28;20030;-75